Espaço - Ciências - Fenômenos Naturais
Meteógrafos Informações Meteorológicas em tempo real

Base aérea de Santa Cruz

Histórico do Tempo
Temperatura atual: 19 graus 66 F    Umidade relativa: 93 %
Velocidade do vento: 03 nós 5 Km/h    Direção: 020 graus NNE
Ajuste do altímetro ..: 1012 HPA
Visibilidade: Regular    Tempo presente: Quase sem nuvens

Observação

Data Hora BRTTempo°CUmidadePressãoVentoVisib.
24/05 - 06:56   Quase sem nuvens 19° 93% 1012 Norte-nordeste/5 km/h 6000
24/05 - 05:56   Névoa úmida 18° 93% 1012 Norte/0 km/h 5000
24/05 - 04:56   Névoa úmida 19° 93% 1012 Norte-nordeste/3 km/h 5000
24/05 - 03:56   Névoa úmida 19° 93% 1012 Norte-nordeste/5 km/h 4500
24/05 - 02:56   Névoa úmida 19° 100% 1013 Norte/5 km/h 3000
24/05 - 01:56   Névoa úmida 19° 93% 1013 Norte/3 km/h 4000
24/05 - 00:56   Névoa úmida 19° 93% 1013 Norte-nordeste/5 km/h 5000
23/05 - 23:56   Névoa úmida 19° 93% 1014 Norte-nordeste/5 km/h 5000
23/05 - 22:56   Névoa úmida 20° 88% 1014 Nordeste/3 km/h 5000
23/05 - 21:56   Névoa úmida 20° 93% 1013 Norte/3 km/h 4000
23/05 - 20:56   Névoa úmida 20° 93% 1013 Norte/3 km/h 4000
23/05 - 19:56   Névoa úmida 22° 94% 1012 Sul-sudoeste/5 km/h 5000
23/05 - 18:56   Quase sem nuvens 23° 88% 1012 Sul-sudoeste/3 km/h 6000
23/05 - 17:56   Céu Limpo 26° 78% 1011 Sul/9 km/h OK
23/05 - 16:56   Céu Limpo 27° 74% 1011 Sul-sudoeste/10 km/h OK
23/05 - 15:56   Céu Limpo 27° 74% 1011 Sul-sudoeste/16 km/h OK
23/05 - 14:56   Céu Limpo 29° 58% 1011 Sul-sudoeste/12 km/h OK
23/05 - 13:56   Céu Limpo 31° 43% 1012 Norte-noroeste/10 km/h OK
23/05 - 12:56   Quase sem nuvens 30° 45% 1013 Norte-noroeste/9 km/h 9000
23/05 - 11:56   Quase sem nuvens 29° 51% 1013 Norte/16 km/h 9000
23/05 - 10:56   Quase sem nuvens 27° 61% 1014 Norte-noroeste/19 km/h 9000
23/05 - 09:56   Quase sem nuvens 26° 65% 1014 Norte-noroeste/14 km/h 9000
23/05 - 08:56   Quase sem nuvens 22° 83% 1014 Norte-nordeste/10 km/h 9000
23/05 - 07:56   Quase sem nuvens 20° 88% 1013 Norte/9 km/h 7000


Apolo11.com - Todos os direitos reservados - 2000 - 2019
Política de Privacidade   |     Termo de Uso e Licenciamento   |  -   Entre em Contato

"Política é a guerra sem sangue enquanto a guerra é a política com sangue" - Mao Tsé-Tung